sensor_id;sensor_type;location;lat;lon;timestamp;P1;durP1;ratioP1;P2;durP2;ratioP2
71127;SDS011;59249;59.736;30.568;2022-10-31T00:00:06;2.05;;;0.22;;
71127;SDS011;59249;59.736;30.568;2022-10-31T00:02:38;0.82;;;0.10;;
71127;SDS011;59249;59.736;30.568;2022-10-31T00:05:07;1.33;;;0.20;;
71127;SDS011;59249;59.736;30.568;2022-10-31T00:07:39;0.23;;;0.10;;
71127;SDS011;59249;59.736;30.568;2022-10-31T00:10:09;0.40;;;0.10;;
71127;SDS011;59249;59.736;30.568;2022-10-31T00:12:43;0.20;;;0.00;;
71127;SDS011;59249;59.736;30.568;2022-10-31T00:15:11;2.55;;;0.10;;
71127;SDS011;59249;59.736;30.568;2022-10-31T00:17:40;0.63;;;0.00;;
71127;SDS011;59249;59.736;30.568;2022-10-31T00:20:11;0.23;;;0.10;;
71127;SDS011;59249;59.736;30.568;2022-10-31T00:22:39;0.75;;;0.10;;
71127;SDS011;59249;59.736;30.568;2022-10-31T00:25:09;2.55;;;0.20;;
71127;SDS011;59249;59.736;30.568;2022-10-31T00:27:48;0.30;;;0.03;;
71127;SDS011;59249;59.736;30.568;2022-10-31T00:30:17;0.20;;;0.00;;
71127;SDS011;59249;59.736;30.568;2022-10-31T00:32:46;2.47;;;0.20;;
71127;SDS011;59249;59.736;30.568;2022-10-31T00:35:17;0.17;;;0.00;;
71127;SDS011;59249;59.736;30.568;2022-10-31T00:37:48;1.30;;;0.35;;
71127;SDS011;59249;59.736;30.568;2022-10-31T00:40:16;0.65;;;0.10;;
71127;SDS011;59249;59.736;30.568;2022-10-31T00:42:45;0.38;;;0.13;;
71127;SDS011;59249;59.736;30.568;2022-10-31T00:45:15;2.00;;;0.17;;
71127;SDS011;59249;59.736;30.568;2022-10-31T00:47:44;0.55;;;0.10;;
71127;SDS011;59249;59.736;30.568;2022-10-31T00:50:13;0.65;;;0.20;;
71127;SDS011;59249;59.736;30.568;2022-10-31T00:52:42;2.38;;;0.10;;
71127;SDS011;59249;59.736;30.568;2022-10-31T00:55:11;1.27;;;0.30;;
71127;SDS011;59249;59.736;30.568;2022-10-31T00:57:40;1.13;;;0.10;;
71127;SDS011;59249;59.736;30.568;2022-10-31T01:00:11;3.28;;;0.20;;
71127;SDS011;59249;59.736;30.568;2022-10-31T01:02:42;2.75;;;0.20;;
71127;SDS011;59249;59.736;30.568;2022-10-31T01:05:11;0.60;;;0.10;;
71127;SDS011;59249;59.736;30.568;2022-10-31T01:07:40;0.52;;;0.08;;
71127;SDS011;59249;59.736;30.568;2022-10-31T01:10:10;1.83;;;0.10;;
71127;SDS011;59249;59.736;30.568;2022-10-31T01:12:39;0.70;;;0.10;;
71127;SDS011;59249;59.736;30.568;2022-10-31T01:15:15;0.47;;;0.10;;
71127;SDS011;59249;59.736;30.568;2022-10-31T01:17:48;1.52;;;0.15;;
71127;SDS011;59249;59.736;30.568;2022-10-31T01:20:18;2.35;;;0.10;;
71127;SDS011;59249;59.736;30.568;2022-10-31T01:22:47;5.10;;;0.30;;
71127;SDS011;59249;59.736;30.568;2022-10-31T01:25:16;3.28;;;0.30;;
71127;SDS011;59249;59.736;30.568;2022-10-31T01:27:44;2.45;;;0.30;;
71127;SDS011;59249;59.736;30.568;2022-10-31T01:30:15;2.35;;;0.28;;
71127;SDS011;59249;59.736;30.568;2022-10-31T01:32:43;3.63;;;0.20;;
71127;SDS011;59249;59.736;30.568;2022-10-31T01:35:12;1.53;;;0.20;;
71127;SDS011;59249;59.736;30.568;2022-10-31T01:37:41;1.70;;;0.20;;
71127;SDS011;59249;59.736;30.568;2022-10-31T01:40:10;2.97;;;0.28;;
71127;SDS011;59249;59.736;30.568;2022-10-31T01:42:39;1.10;;;0.00;;
71127;SDS011;59249;59.736;30.568;2022-10-31T01:45:09;2.67;;;0.10;;
71127;SDS011;59249;59.736;30.568;2022-10-31T01:47:42;3.00;;;0.27;;
71127;SDS011;59249;59.736;30.568;2022-10-31T01:50:15;4.93;;;0.20;;
71127;SDS011;59249;59.736;30.568;2022-10-31T01:52:58;3.00;;;0.17;;
71127;SDS011;59249;59.736;30.568;2022-10-31T01:55:30;0.65;;;0.20;;
71127;SDS011;59249;59.736;30.568;2022-10-31T01:58:06;4.95;;;1.73;;
71127;SDS011;59249;59.736;30.568;2022-10-31T02:00:41;2.57;;;0.30;;
71127;SDS011;59249;59.736;30.568;2022-10-31T02:03:16;4.82;;;0.40;;
71127;SDS011;59249;59.736;30.568;2022-10-31T02:05:46;1.85;;;0.10;;
71127;SDS011;59249;59.736;30.568;2022-10-31T02:08:21;1.67;;;0.43;;
71127;SDS011;59249;59.736;30.568;2022-10-31T02:10:56;2.95;;;0.20;;
71127;SDS011;59249;59.736;30.568;2022-10-31T02:13:28;1.40;;;0.10;;
71127;SDS011;59249;59.736;30.568;2022-10-31T02:15:58;1.42;;;0.20;;
71127;SDS011;59249;59.736;30.568;2022-10-31T02:18:29;3.80;;;0.30;;
71127;SDS011;59249;59.736;30.568;2022-10-31T02:21:01;4.00;;;0.50;;
71127;SDS011;59249;59.736;30.568;2022-10-31T02:23:51;4.30;;;0.32;;
71127;SDS011;59249;59.736;30.568;2022-10-31T02:26:57;5.57;;;0.30;;
71127;SDS011;59249;59.736;30.568;2022-10-31T02:29:47;2.08;;;0.10;;
71127;SDS011;59249;59.736;30.568;2022-10-31T02:32:48;0.57;;;0.10;;
71127;SDS011;59249;59.736;30.568;2022-10-31T02:35:39;0.63;;;0.10;;
71127;SDS011;59249;59.736;30.568;2022-10-31T02:38:25;1.10;;;0.10;;
71127;SDS011;59249;59.736;30.568;2022-10-31T02:41:16;1.47;;;0.10;;
71127;SDS011;59249;59.736;30.568;2022-10-31T02:44:02;1.60;;;0.13;;
71127;SDS011;59249;59.736;30.568;2022-10-31T02:49:18;0.52;;;0.10;;
71127;SDS011;59249;59.736;30.568;2022-10-31T02:51:55;0.80;;;0.20;;
71127;SDS011;59249;59.736;30.568;2022-10-31T02:54:26;0.40;;;0.10;;
71127;SDS011;59249;59.736;30.568;2022-10-31T02:56:58;2.40;;;0.22;;
71127;SDS011;59249;59.736;30.568;2022-10-31T02:59:44;0.95;;;0.10;;
71127;SDS011;59249;59.736;30.568;2022-10-31T03:05:37;0.35;;;0.10;;
71127;SDS011;59249;59.736;30.568;2022-10-31T03:11:35;1.58;;;0.20;;
71127;SDS011;59249;59.736;30.568;2022-10-31T03:14:15;3.60;;;1.00;;
71127;SDS011;59249;59.736;30.568;2022-10-31T03:16:59;0.55;;;0.00;;
71127;SDS011;59249;59.736;30.568;2022-10-31T03:19:39;3.90;;;0.75;;
71127;SDS011;59249;59.736;30.568;2022-10-31T03:22:17;0.63;;;0.20;;
71127;SDS011;59249;59.736;30.568;2022-10-31T03:24:52;3.10;;;0.20;;
71127;SDS011;59249;59.736;30.568;2022-10-31T03:27:32;2.25;;;0.10;;
71127;SDS011;59249;59.736;30.568;2022-10-31T03:30:05;2.13;;;0.30;;
71127;SDS011;59249;59.736;30.568;2022-10-31T03:32:51;1.58;;;0.20;;
71127;SDS011;59249;59.736;30.568;2022-10-31T03:35:27;0.97;;;0.10;;
71127;SDS011;59249;59.736;30.568;2022-10-31T03:38:06;2.47;;;0.10;;
71127;SDS011;59249;59.736;30.568;2022-10-31T03:40:38;0.82;;;0.20;;
71127;SDS011;59249;59.736;30.568;2022-10-31T03:43:15;1.15;;;0.50;;
71127;SDS011;59249;59.736;30.568;2022-10-31T03:45:50;0.82;;;0.10;;
71127;SDS011;59249;59.736;30.568;2022-10-31T03:48:24;1.80;;;0.40;;
71127;SDS011;59249;59.736;30.568;2022-10-31T03:50:57;1.40;;;0.20;;
71127;SDS011;59249;59.736;30.568;2022-10-31T03:53:45;0.43;;;0.10;;
71127;SDS011;59249;59.736;30.568;2022-10-31T03:56:25;0.50;;;0.13;;
71127;SDS011;59249;59.736;30.568;2022-10-31T03:59:04;1.00;;;0.10;;
71127;SDS011;59249;59.736;30.568;2022-10-31T04:01:51;0.40;;;0.10;;
71127;SDS011;59249;59.736;30.568;2022-10-31T04:04:25;0.13;;;0.08;;
71127;SDS011;59249;59.736;30.568;2022-10-31T04:06:59;2.33;;;0.30;;
71127;SDS011;59249;59.736;30.568;2022-10-31T04:09:35;1.30;;;0.43;;
71127;SDS011;59249;59.736;30.568;2022-10-31T04:12:13;5.45;;;0.47;;
71127;SDS011;59249;59.736;30.568;2022-10-31T04:15:00;1.27;;;0.10;;
71127;SDS011;59249;59.736;30.568;2022-10-31T04:17:35;2.60;;;0.20;;
71127;SDS011;59249;59.736;30.568;2022-10-31T04:20:09;1.30;;;0.20;;
71127;SDS011;59249;59.736;30.568;2022-10-31T04:22:42;0.22;;;0.10;;
71127;SDS011;59249;59.736;30.568;2022-10-31T04:25:13;0.25;;;0.00;;
71127;SDS011;59249;59.736;30.568;2022-10-31T04:27:42;0.63;;;0.10;;
71127;SDS011;59249;59.736;30.568;2022-10-31T04:30:11;0.88;;;0.30;;
71127;SDS011;59249;59.736;30.568;2022-10-31T04:32:40;5.25;;;0.38;;
71127;SDS011;59249;59.736;30.568;2022-10-31T04:35:09;0.30;;;0.10;;
71127;SDS011;59249;59.736;30.568;2022-10-31T04:37:38;0.75;;;0.10;;
71127;SDS011;59249;59.736;30.568;2022-10-31T04:40:07;1.10;;;0.10;;
71127;SDS011;59249;59.736;30.568;2022-10-31T04:42:57;2.67;;;0.10;;
71127;SDS011;59249;59.736;30.568;2022-10-31T04:45:27;1.70;;;0.20;;
71127;SDS011;59249;59.736;30.568;2022-10-31T04:47:56;3.15;;;0.50;;
71127;SDS011;59249;59.736;30.568;2022-10-31T04:50:25;1.17;;;0.47;;
71127;SDS011;59249;59.736;30.568;2022-10-31T04:52:54;1.07;;;0.20;;
71127;SDS011;59249;59.736;30.568;2022-10-31T04:55:27;0.63;;;0.10;;
71127;SDS011;59249;59.736;30.568;2022-10-31T04:58:16;1.33;;;0.15;;
71127;SDS011;59249;59.736;30.568;2022-10-31T05:00:45;11.60;;;0.40;;
71127;SDS011;59249;59.736;30.568;2022-10-31T05:03:14;0.95;;;0.20;;
71127;SDS011;59249;59.736;30.568;2022-10-31T05:05:43;0.67;;;0.00;;
71127;SDS011;59249;59.736;30.568;2022-10-31T05:08:12;1.45;;;0.40;;
71127;SDS011;59249;59.736;30.568;2022-10-31T05:10:41;2.35;;;0.20;;
71127;SDS011;59249;59.736;30.568;2022-10-31T05:13:10;1.63;;;0.20;;
71127;SDS011;59249;59.736;30.568;2022-10-31T05:16:16;1.65;;;0.20;;
71127;SDS011;59249;59.736;30.568;2022-10-31T05:19:03;1.93;;;0.00;;
71127;SDS011;59249;59.736;30.568;2022-10-31T05:21:52;1.13;;;0.10;;
71127;SDS011;59249;59.736;30.568;2022-10-31T05:24:21;0.28;;;0.10;;
71127;SDS011;59249;59.736;30.568;2022-10-31T05:26:50;2.15;;;0.85;;
71127;SDS011;59249;59.736;30.568;2022-10-31T05:29:18;1.67;;;0.15;;
71127;SDS011;59249;59.736;30.568;2022-10-31T05:31:48;2.10;;;0.50;;
71127;SDS011;59249;59.736;30.568;2022-10-31T05:34:37;3.45;;;0.45;;
71127;SDS011;59249;59.736;30.568;2022-10-31T05:37:24;3.00;;;0.52;;
71127;SDS011;59249;59.736;30.568;2022-10-31T05:39:53;4.88;;;0.60;;
71127;SDS011;59249;59.736;30.568;2022-10-31T05:42:22;7.60;;;0.30;;
71127;SDS011;59249;59.736;30.568;2022-10-31T05:44:51;2.93;;;0.27;;
71127;SDS011;59249;59.736;30.568;2022-10-31T05:47:25;1.75;;;0.38;;
71127;SDS011;59249;59.736;30.568;2022-10-31T05:50:30;1.67;;;0.13;;
71127;SDS011;59249;59.736;30.568;2022-10-31T05:53:08;3.38;;;0.30;;
71127;SDS011;59249;59.736;30.568;2022-10-31T05:55:39;3.42;;;0.40;;
71127;SDS011;59249;59.736;30.568;2022-10-31T05:58:11;1.87;;;0.63;;
71127;SDS011;59249;59.736;30.568;2022-10-31T06:00:48;2.72;;;0.50;;
71127;SDS011;59249;59.736;30.568;2022-10-31T06:03:18;0.90;;;0.20;;
71127;SDS011;59249;59.736;30.568;2022-10-31T06:05:51;3.25;;;0.47;;
71127;SDS011;59249;59.736;30.568;2022-10-31T06:08:24;1.45;;;0.30;;
71127;SDS011;59249;59.736;30.568;2022-10-31T06:10:55;1.90;;;0.30;;
71127;SDS011;59249;59.736;30.568;2022-10-31T06:13:44;1.98;;;0.22;;
71127;SDS011;59249;59.736;30.568;2022-10-31T06:16:22;3.80;;;0.55;;
71127;SDS011;59249;59.736;30.568;2022-10-31T06:18:54;3.00;;;0.30;;
71127;SDS011;59249;59.736;30.568;2022-10-31T06:21:23;3.63;;;0.80;;
71127;SDS011;59249;59.736;30.568;2022-10-31T06:23:52;2.33;;;0.57;;
71127;SDS011;59249;59.736;30.568;2022-10-31T06:26:41;2.00;;;0.32;;
71127;SDS011;59249;59.736;30.568;2022-10-31T06:29:10;10.88;;;1.58;;
71127;SDS011;59249;59.736;30.568;2022-10-31T06:31:55;3.05;;;0.60;;
71127;SDS011;59249;59.736;30.568;2022-10-31T06:34:25;7.85;;;1.35;;
71127;SDS011;59249;59.736;30.568;2022-10-31T06:36:54;4.80;;;0.63;;
71127;SDS011;59249;59.736;30.568;2022-10-31T06:39:24;6.05;;;1.17;;
71127;SDS011;59249;59.736;30.568;2022-10-31T06:41:53;5.20;;;0.73;;
71127;SDS011;59249;59.736;30.568;2022-10-31T06:44:24;2.72;;;0.40;;
71127;SDS011;59249;59.736;30.568;2022-10-31T06:46:53;2.83;;;0.95;;
71127;SDS011;59249;59.736;30.568;2022-10-31T06:49:39;14.13;;;1.13;;
71127;SDS011;59249;59.736;30.568;2022-10-31T06:52:12;3.35;;;0.80;;
71127;SDS011;59249;59.736;30.568;2022-10-31T06:54:41;3.67;;;0.47;;
71127;SDS011;59249;59.736;30.568;2022-10-31T06:57:10;3.45;;;0.80;;
71127;SDS011;59249;59.736;30.568;2022-10-31T06:59:39;5.30;;;2.28;;
71127;SDS011;59249;59.736;30.568;2022-10-31T07:02:13;7.63;;;0.70;;
71127;SDS011;59249;59.736;30.568;2022-10-31T07:04:44;4.50;;;0.82;;
71127;SDS011;59249;59.736;30.568;2022-10-31T07:07:14;14.70;;;2.90;;
71127;SDS011;59249;59.736;30.568;2022-10-31T07:09:44;3.88;;;0.88;;
71127;SDS011;59249;59.736;30.568;2022-10-31T07:12:16;7.97;;;0.75;;
71127;SDS011;59249;59.736;30.568;2022-10-31T07:14:53;4.67;;;1.70;;
71127;SDS011;59249;59.736;30.568;2022-10-31T07:17:23;5.93;;;0.82;;
71127;SDS011;59249;59.736;30.568;2022-10-31T07:19:59;4.53;;;1.10;;
71127;SDS011;59249;59.736;30.568;2022-10-31T07:22:32;6.97;;;0.85;;
71127;SDS011;59249;59.736;30.568;2022-10-31T07:25:04;4.18;;;0.68;;
71127;SDS011;59249;59.736;30.568;2022-10-31T07:27:52;6.60;;;1.30;;
71127;SDS011;59249;59.736;30.568;2022-10-31T07:30:21;4.75;;;0.68;;
71127;SDS011;59249;59.736;30.568;2022-10-31T07:32:53;4.80;;;0.70;;
71127;SDS011;59249;59.736;30.568;2022-10-31T07:35:32;3.80;;;0.43;;
71127;SDS011;59249;59.736;30.568;2022-10-31T07:38:08;5.10;;;0.90;;
71127;SDS011;59249;59.736;30.568;2022-10-31T07:40:39;7.60;;;0.90;;
71127;SDS011;59249;59.736;30.568;2022-10-31T07:43:10;6.80;;;1.20;;
71127;SDS011;59249;59.736;30.568;2022-10-31T07:45:56;3.97;;;0.77;;
71127;SDS011;59249;59.736;30.568;2022-10-31T07:48:54;7.38;;;1.17;;
71127;SDS011;59249;59.736;30.568;2022-10-31T07:51:53;2.55;;;0.50;;
71127;SDS011;59249;59.736;30.568;2022-10-31T07:54:44;2.63;;;0.77;;
71127;SDS011;59249;59.736;30.568;2022-10-31T07:57:21;6.70;;;1.20;;
71127;SDS011;59249;59.736;30.568;2022-10-31T07:59:51;5.35;;;0.68;;
71127;SDS011;59249;59.736;30.568;2022-10-31T08:02:22;8.05;;;1.08;;
71127;SDS011;59249;59.736;30.568;2022-10-31T08:05:29;3.75;;;0.50;;
71127;SDS011;59249;59.736;30.568;2022-10-31T08:08:29;6.50;;;0.93;;
71127;SDS011;59249;59.736;30.568;2022-10-31T08:11:04;5.57;;;1.10;;
71127;SDS011;59249;59.736;30.568;2022-10-31T08:13:37;5.35;;;0.57;;
71127;SDS011;59249;59.736;30.568;2022-10-31T08:16:07;8.27;;;1.15;;
71127;SDS011;59249;59.736;30.568;2022-10-31T08:18:43;5.53;;;0.85;;
71127;SDS011;59249;59.736;30.568;2022-10-31T08:21:17;3.77;;;0.90;;
71127;SDS011;59249;59.736;30.568;2022-10-31T08:23:48;4.00;;;0.80;;
71127;SDS011;59249;59.736;30.568;2022-10-31T08:26:19;2.05;;;0.50;;
71127;SDS011;59249;59.736;30.568;2022-10-31T08:28:50;3.33;;;0.80;;
71127;SDS011;59249;59.736;30.568;2022-10-31T08:31:32;5.35;;;1.23;;
71127;SDS011;59249;59.736;30.568;2022-10-31T08:34:26;3.93;;;0.80;;
71127;SDS011;59249;59.736;30.568;2022-10-31T08:37:13;4.28;;;1.05;;
71127;SDS011;59249;59.736;30.568;2022-10-31T08:39:52;7.63;;;0.80;;
71127;SDS011;59249;59.736;30.568;2022-10-31T08:42:21;4.72;;;0.70;;
71127;SDS011;59249;59.736;30.568;2022-10-31T08:44:50;3.72;;;0.75;;
71127;SDS011;59249;59.736;30.568;2022-10-31T08:47:22;2.53;;;0.30;;
71127;SDS011;59249;59.736;30.568;2022-10-31T08:49:52;1.95;;;0.30;;
71127;SDS011;59249;59.736;30.568;2022-10-31T08:52:22;5.72;;;0.40;;
71127;SDS011;59249;59.736;30.568;2022-10-31T08:55:14;3.92;;;0.57;;
71127;SDS011;59249;59.736;30.568;2022-10-31T08:58:01;3.05;;;0.50;;
71127;SDS011;59249;59.736;30.568;2022-10-31T09:00:41;4.40;;;0.70;;
71127;SDS011;59249;59.736;30.568;2022-10-31T09:03:15;0.75;;;0.30;;
71127;SDS011;59249;59.736;30.568;2022-10-31T09:05:45;3.58;;;0.55;;
71127;SDS011;59249;59.736;30.568;2022-10-31T09:08:15;3.67;;;0.55;;
71127;SDS011;59249;59.736;30.568;2022-10-31T09:10:47;2.70;;;0.43;;
71127;SDS011;59249;59.736;30.568;2022-10-31T09:13:27;3.07;;;0.43;;
71127;SDS011;59249;59.736;30.568;2022-10-31T09:16:16;3.85;;;0.65;;
71127;SDS011;59249;59.736;30.568;2022-10-31T09:18:45;3.85;;;0.38;;
71127;SDS011;59249;59.736;30.568;2022-10-31T09:21:15;2.83;;;0.35;;
71127;SDS011;59249;59.736;30.568;2022-10-31T09:23:45;3.30;;;0.60;;
71127;SDS011;59249;59.736;30.568;2022-10-31T09:26:15;6.03;;;0.90;;
71127;SDS011;59249;59.736;30.568;2022-10-31T09:29:07;7.30;;;0.75;;
71127;SDS011;59249;59.736;30.568;2022-10-31T09:31:37;3.58;;;0.50;;
71127;SDS011;59249;59.736;30.568;2022-10-31T09:34:25;6.22;;;1.27;;
71127;SDS011;59249;59.736;30.568;2022-10-31T09:37:14;4.50;;;0.60;;
71127;SDS011;59249;59.736;30.568;2022-10-31T09:39:44;1.60;;;0.30;;
71127;SDS011;59249;59.736;30.568;2022-10-31T09:42:38;3.13;;;0.60;;
71127;SDS011;59249;59.736;30.568;2022-10-31T09:45:26;2.55;;;0.30;;
71127;SDS011;59249;59.736;30.568;2022-10-31T09:48:19;2.35;;;0.30;;
71127;SDS011;59249;59.736;30.568;2022-10-31T09:51:35;3.03;;;0.40;;
71127;SDS011;59249;59.736;30.568;2022-10-31T09:54:26;4.13;;;0.33;;
71127;SDS011;59249;59.736;30.568;2022-10-31T09:57:05;3.67;;;0.65;;
71127;SDS011;59249;59.736;30.568;2022-10-31T09:59:43;1.95;;;0.30;;
71127;SDS011;59249;59.736;30.568;2022-10-31T10:02:19;3.08;;;0.32;;
71127;SDS011;59249;59.736;30.568;2022-10-31T10:04:59;1.40;;;0.20;;
71127;SDS011;59249;59.736;30.568;2022-10-31T10:07:35;2.10;;;0.30;;
71127;SDS011;59249;59.736;30.568;2022-10-31T10:10:34;1.25;;;0.30;;
71127;SDS011;59249;59.736;30.568;2022-10-31T10:13:49;3.45;;;0.43;;
71127;SDS011;59249;59.736;30.568;2022-10-31T10:16:50;4.22;;;0.50;;
71127;SDS011;59249;59.736;30.568;2022-10-31T10:19:43;3.40;;;0.45;;
71127;SDS011;59249;59.736;30.568;2022-10-31T10:22:31;1.00;;;0.20;;
71127;SDS011;59249;59.736;30.568;2022-10-31T10:25:19;1.35;;;0.20;;
71127;SDS011;59249;59.736;30.568;2022-10-31T10:27:58;2.65;;;0.25;;
71127;SDS011;59249;59.736;30.568;2022-10-31T10:30:39;2.25;;;0.30;;
71127;SDS011;59249;59.736;30.568;2022-10-31T10:33:13;2.33;;;0.10;;
71127;SDS011;59249;59.736;30.568;2022-10-31T10:35:48;1.90;;;0.30;;
71127;SDS011;59249;59.736;30.568;2022-10-31T10:38:27;1.23;;;0.20;;
71127;SDS011;59249;59.736;30.568;2022-10-31T10:41:04;2.35;;;0.22;;
71127;SDS011;59249;59.736;30.568;2022-10-31T10:43:40;1.42;;;0.17;;
71127;SDS011;59249;59.736;30.568;2022-10-31T10:46:16;0.47;;;0.10;;
71127;SDS011;59249;59.736;30.568;2022-10-31T10:49:09;3.97;;;0.37;;
71127;SDS011;59249;59.736;30.568;2022-10-31T10:51:46;7.70;;;1.02;;
71127;SDS011;59249;59.736;30.568;2022-10-31T10:54:55;3.03;;;0.20;;
71127;SDS011;59249;59.736;30.568;2022-10-31T10:57:41;0.28;;;0.00;;
71127;SDS011;59249;59.736;30.568;2022-10-31T11:00:25;2.05;;;0.30;;
71127;SDS011;59249;59.736;30.568;2022-10-31T11:02:58;2.60;;;0.50;;
71127;SDS011;59249;59.736;30.568;2022-10-31T11:05:30;2.22;;;0.30;;
71127;SDS011;59249;59.736;30.568;2022-10-31T11:08:05;2.15;;;0.20;;
71127;SDS011;59249;59.736;30.568;2022-10-31T11:10:34;3.28;;;0.70;;
71127;SDS011;59249;59.736;30.568;2022-10-31T11:13:06;3.78;;;0.52;;
71127;SDS011;59249;59.736;30.568;2022-10-31T11:15:51;3.50;;;0.30;;
71127;SDS011;59249;59.736;30.568;2022-10-31T11:18:25;1.80;;;0.30;;
71127;SDS011;59249;59.736;30.568;2022-10-31T11:20:58;1.85;;;0.47;;
71127;SDS011;59249;59.736;30.568;2022-10-31T11:23:31;3.75;;;0.40;;
71127;SDS011;59249;59.736;30.568;2022-10-31T11:26:01;4.55;;;0.73;;
71127;SDS011;59249;59.736;30.568;2022-10-31T11:28:33;2.47;;;0.33;;
71127;SDS011;59249;59.736;30.568;2022-10-31T11:31:05;3.80;;;0.50;;
71127;SDS011;59249;59.736;30.568;2022-10-31T11:33:39;2.95;;;0.30;;
71127;SDS011;59249;59.736;30.568;2022-10-31T11:36:23;1.77;;;0.20;;
71127;SDS011;59249;59.736;30.568;2022-10-31T11:38:55;1.35;;;0.28;;
71127;SDS011;59249;59.736;30.568;2022-10-31T11:41:25;2.80;;;0.50;;
71127;SDS011;59249;59.736;30.568;2022-10-31T11:43:59;1.27;;;0.22;;
71127;SDS011;59249;59.736;30.568;2022-10-31T11:46:32;1.05;;;0.20;;
71127;SDS011;59249;59.736;30.568;2022-10-31T11:49:05;7.97;;;0.40;;
71127;SDS011;59249;59.736;30.568;2022-10-31T11:51:49;2.65;;;0.65;;
71127;SDS011;59249;59.736;30.568;2022-10-31T11:54:24;0.93;;;0.20;;
71127;SDS011;59249;59.736;30.568;2022-10-31T11:56:56;2.55;;;0.38;;
71127;SDS011;59249;59.736;30.568;2022-10-31T11:59:26;0.77;;;0.25;;
71127;SDS011;59249;59.736;30.568;2022-10-31T12:01:58;5.35;;;0.45;;
71127;SDS011;59249;59.736;30.568;2022-10-31T12:04:31;3.03;;;0.40;;
71127;SDS011;59249;59.736;30.568;2022-10-31T12:07:14;3.33;;;0.47;;
71127;SDS011;59249;59.736;30.568;2022-10-31T12:09:43;3.17;;;0.30;;
71127;SDS011;59249;59.736;30.568;2022-10-31T12:15:25;1.42;;;0.15;;
71127;SDS011;59249;59.736;30.568;2022-10-31T12:18:11;5.70;;;0.47;;
71127;SDS011;59249;59.736;30.568;2022-10-31T12:21:15;2.83;;;0.47;;
71127;SDS011;59249;59.736;30.568;2022-10-31T12:24:08;5.63;;;0.65;;
71127;SDS011;59249;59.736;30.568;2022-10-31T12:26:54;7.65;;;1.17;;
71127;SDS011;59249;59.736;30.568;2022-10-31T12:32:41;3.47;;;0.45;;
71127;SDS011;59249;59.736;30.568;2022-10-31T12:35:40;3.50;;;0.40;;
71127;SDS011;59249;59.736;30.568;2022-10-31T12:41:28;3.85;;;0.60;;
71127;SDS011;59249;59.736;30.568;2022-10-31T12:50:35;3.43;;;0.87;;
71127;SDS011;59249;59.736;30.568;2022-10-31T12:53:22;5.22;;;1.08;;
71127;SDS011;59249;59.736;30.568;2022-10-31T12:56:16;5.15;;;0.70;;
71127;SDS011;59249;59.736;30.568;2022-10-31T12:59:04;2.17;;;0.55;;
71127;SDS011;59249;59.736;30.568;2022-10-31T13:01:44;6.00;;;0.50;;
71127;SDS011;59249;59.736;30.568;2022-10-31T13:04:21;3.30;;;0.60;;
71127;SDS011;59249;59.736;30.568;2022-10-31T13:07:05;1.52;;;0.25;;
71127;SDS011;59249;59.736;30.568;2022-10-31T13:09:44;3.25;;;0.60;;
71127;SDS011;59249;59.736;30.568;2022-10-31T13:12:23;3.00;;;0.75;;
71127;SDS011;59249;59.736;30.568;2022-10-31T13:15:02;6.72;;;0.93;;
71127;SDS011;59249;59.736;30.568;2022-10-31T13:17:41;6.17;;;1.57;;
71127;SDS011;59249;59.736;30.568;2022-10-31T13:20:17;5.35;;;0.50;;
71127;SDS011;59249;59.736;30.568;2022-10-31T13:22:53;2.20;;;0.50;;
71127;SDS011;59249;59.736;30.568;2022-10-31T13:25:53;2.05;;;0.40;;
71127;SDS011;59249;59.736;30.568;2022-10-31T13:28:29;2.15;;;0.60;;
71127;SDS011;59249;59.736;30.568;2022-10-31T13:31:08;3.40;;;0.60;;
71127;SDS011;59249;59.736;30.568;2022-10-31T13:33:37;1.98;;;0.75;;
71127;SDS011;59249;59.736;30.568;2022-10-31T13:36:17;1.88;;;0.40;;
71127;SDS011;59249;59.736;30.568;2022-10-31T13:38:57;3.42;;;0.35;;
71127;SDS011;59249;59.736;30.568;2022-10-31T13:41:43;6.85;;;0.30;;
71127;SDS011;59249;59.736;30.568;2022-10-31T13:44:20;2.43;;;0.50;;
71127;SDS011;59249;59.736;30.568;2022-10-31T13:46:52;5.07;;;0.50;;
71127;SDS011;59249;59.736;30.568;2022-10-31T13:49:25;2.95;;;0.50;;
71127;SDS011;59249;59.736;30.568;2022-10-31T13:52:12;2.00;;;0.50;;
71127;SDS011;59249;59.736;30.568;2022-10-31T13:54:45;6.68;;;0.30;;
71127;SDS011;59249;59.736;30.568;2022-10-31T13:57:16;1.97;;;0.33;;
71127;SDS011;59249;59.736;30.568;2022-10-31T13:59:52;5.22;;;0.88;;
71127;SDS011;59249;59.736;30.568;2022-10-31T14:02:25;5.05;;;0.93;;
71127;SDS011;59249;59.736;30.568;2022-10-31T14:04:58;7.07;;;0.80;;
71127;SDS011;59249;59.736;30.568;2022-10-31T14:07:41;3.78;;;0.60;;
71127;SDS011;59249;59.736;30.568;2022-10-31T14:10:19;3.40;;;0.50;;
71127;SDS011;59249;59.736;30.568;2022-10-31T14:12:55;3.70;;;0.73;;
71127;SDS011;59249;59.736;30.568;2022-10-31T14:15:39;4.80;;;0.90;;
71127;SDS011;59249;59.736;30.568;2022-10-31T14:18:22;4.68;;;0.70;;
71127;SDS011;59249;59.736;30.568;2022-10-31T14:20:56;6.55;;;0.70;;
71127;SDS011;59249;59.736;30.568;2022-10-31T14:23:31;7.37;;;0.90;;
71127;SDS011;59249;59.736;30.568;2022-10-31T14:31:55;3.08;;;0.82;;
71127;SDS011;59249;59.736;30.568;2022-10-31T14:34:30;3.58;;;1.23;;
71127;SDS011;59249;59.736;30.568;2022-10-31T14:37:11;4.23;;;0.80;;
71127;SDS011;59249;59.736;30.568;2022-10-31T14:39:57;4.32;;;1.23;;
71127;SDS011;59249;59.736;30.568;2022-10-31T14:42:49;5.22;;;0.80;;
71127;SDS011;59249;59.736;30.568;2022-10-31T14:45:42;3.63;;;1.00;;
71127;SDS011;59249;59.736;30.568;2022-10-31T14:51:26;4.20;;;0.97;;
71127;SDS011;59249;59.736;30.568;2022-10-31T14:54:03;6.75;;;1.13;;
71127;SDS011;59249;59.736;30.568;2022-10-31T14:56:37;4.35;;;0.60;;
71127;SDS011;59249;59.736;30.568;2022-10-31T14:59:14;7.88;;;0.75;;
71127;SDS011;59249;59.736;30.568;2022-10-31T15:01:54;1.98;;;0.60;;
71127;SDS011;59249;59.736;30.568;2022-10-31T15:04:29;8.33;;;2.30;;
71127;SDS011;59249;59.736;30.568;2022-10-31T15:07:02;13.00;;;2.55;;
71127;SDS011;59249;59.736;30.568;2022-10-31T15:09:39;8.80;;;2.55;;
71127;SDS011;59249;59.736;30.568;2022-10-31T15:14:55;8.57;;;2.13;;
71127;SDS011;59249;59.736;30.568;2022-10-31T15:17:25;10.70;;;2.40;;
71127;SDS011;59249;59.736;30.568;2022-10-31T15:19:55;8.43;;;2.40;;
71127;SDS011;59249;59.736;30.568;2022-10-31T15:22:26;10.38;;;4.38;;
71127;SDS011;59249;59.736;30.568;2022-10-31T15:24:58;12.30;;;3.65;;
71127;SDS011;59249;59.736;30.568;2022-10-31T15:27:28;11.85;;;3.70;;
71127;SDS011;59249;59.736;30.568;2022-10-31T15:29:58;8.67;;;3.03;;
71127;SDS011;59249;59.736;30.568;2022-10-31T15:32:27;7.63;;;3.10;;
71127;SDS011;59249;59.736;30.568;2022-10-31T15:34:58;10.32;;;2.38;;
71127;SDS011;59249;59.736;30.568;2022-10-31T15:37:28;11.23;;;2.95;;
71127;SDS011;59249;59.736;30.568;2022-10-31T15:40:05;8.95;;;2.80;;
71127;SDS011;59249;59.736;30.568;2022-10-31T15:42:42;9.20;;;3.03;;
71127;SDS011;59249;59.736;30.568;2022-10-31T15:45:17;10.32;;;2.90;;
71127;SDS011;59249;59.736;30.568;2022-10-31T15:47:52;17.30;;;6.10;;
71127;SDS011;59249;59.736;30.568;2022-10-31T15:50:28;32.60;;;11.32;;
71127;SDS011;59249;59.736;30.568;2022-10-31T15:53:02;19.05;;;7.05;;
71127;SDS011;59249;59.736;30.568;2022-10-31T15:55:35;11.90;;;3.40;;
71127;SDS011;59249;59.736;30.568;2022-10-31T15:58:14;11.60;;;4.10;;
71127;SDS011;59249;59.736;30.568;2022-10-31T16:00:45;20.85;;;6.00;;
71127;SDS011;59249;59.736;30.568;2022-10-31T16:03:27;14.95;;;4.40;;
71127;SDS011;59249;59.736;30.568;2022-10-31T16:06:00;12.18;;;4.20;;